MTN7102 TISX-TJSJ
Flight info
| Callsign | MTN7102 |
|---|---|
| Flight time | 0h 44m |
| Altitude | 6000 |
| Route | HMLTN9 STT RTE2 SJU |
| Aircraft | C208/L-SDFGR/C |
Departure
| Time | 2026-04-25 16:16 |
|---|---|
| Airport | Henry E. Rohlsen Airport (TISX) |
Arrival
| Time | 2026-04-25 17:00 |
|---|---|
| Airport | Luis Munoz Marin International Airport (TJSJ) |
| Time | Latitude | Longitude | Altitude | Speed | Heading |
|---|---|---|---|---|---|
| 2026-04-25 16:07 | 17.70006 | -64.79039 | 24 ft | 0 kts | 96° |
| 2026-04-25 16:10 | 17.70006 | -64.79038 | 24 ft | 1 kts | 88° |
| 2026-04-25 16:11 | 17.70014 | -64.79048 | 24 ft | 4 kts | 278° |
| 2026-04-25 16:11 | 17.70023 | -64.79097 | 25 ft | 10 kts | 285° |
| 2026-04-25 16:11 | 17.70039 | -64.79192 | 27 ft | 16 kts | 270° |
| 2026-04-25 16:11 | 17.70058 | -64.79320 | 29 ft | 20 kts | 338° |
| 2026-04-25 16:12 | 17.70096 | -64.79416 | 31 ft | 16 kts | 263° |
| 2026-04-25 16:12 | 17.70083 | -64.79545 | 33 ft | 20 kts | 265° |
| 2026-04-25 16:12 | 17.70077 | -64.79698 | 36 ft | 16 kts | 294° |
| 2026-04-25 16:12 | 17.70116 | -64.79760 | 37 ft | 5 kts | 341° |
| 2026-04-25 16:13 | 17.70117 | -64.79760 | 37 ft | 0 kts | 345° |
| 2026-04-25 16:13 | 17.70133 | -64.79757 | 37 ft | 7 kts | 28° |
| 2026-04-25 16:13 | 17.70205 | -64.79721 | 36 ft | 19 kts | 300° |
| 2026-04-25 16:14 | 17.70197 | -64.79789 | 37 ft | 2 kts | 82° |
| 2026-04-25 16:14 | 17.70200 | -64.79762 | 37 ft | 18 kts | 84° |
| 2026-04-25 16:14 | 17.70229 | -64.79477 | 33 ft | 59 kts | 84° |
| 2026-04-25 16:14 | 17.70287 | -64.78926 | 38 ft | 88 kts | 83° |
| 2026-04-25 16:15 | 17.70374 | -64.78284 | 194 ft | 88 kts | 84° |
| 2026-04-25 16:15 | 17.70444 | -64.77662 | 353 ft | 86 kts | 86° |
| 2026-04-25 16:15 | 17.70558 | -64.77033 | 447 ft | 93 kts | 79° |
| 2026-04-25 16:15 | 17.70757 | -64.76333 | 512 ft | 109 kts | 73° |
| 2026-04-25 16:16 | 17.71036 | -64.75598 | 754 ft | 107 kts | 66° |
| 2026-04-25 16:16 | 17.71552 | -64.75061 | 960 ft | 111 kts | 17° |
| 2026-04-25 16:16 | 17.72324 | -64.75148 | 1135 ft | 115 kts | 336° |
| 2026-04-25 16:16 | 17.73060 | -64.75464 | 1368 ft | 113 kts | 334° |
| 2026-04-25 16:17 | 17.73786 | -64.75809 | 1531 ft | 115 kts | 332° |
| 2026-04-25 16:17 | 17.74511 | -64.76187 | 1656 ft | 119 kts | 330° |
| 2026-04-25 16:17 | 17.75268 | -64.76596 | 1755 ft | 125 kts | 330° |
| 2026-04-25 16:17 | 17.76056 | -64.77028 | 1858 ft | 131 kts | 330° |
| 2026-04-25 16:18 | 17.76876 | -64.77481 | 1975 ft | 135 kts | 330° |
| 2026-04-25 16:18 | 17.77145 | -64.77629 | 2020 ft | 136 kts | 330° |
| 2026-04-25 16:18 | 17.78563 | -64.78393 | 2263 ft | 137 kts | 333° |
| 2026-04-25 16:18 | 17.79428 | -64.78805 | 2406 ft | 136 kts | 336° |
| 2026-04-25 16:19 | 17.80307 | -64.79175 | 2549 ft | 136 kts | 339° |
| 2026-04-25 16:19 | 17.81199 | -64.79512 | 2694 ft | 136 kts | 341° |
| 2026-04-25 16:19 | 17.82100 | -64.79821 | 2842 ft | 136 kts | 343° |
| 2026-04-25 16:20 | 17.83647 | -64.80891 | 3143 ft | 135 kts | 332° |
| 2026-04-25 16:20 | 17.84514 | -64.81256 | 3297 ft | 135 kts | 341° |
| 2026-04-25 16:20 | 17.86307 | -64.81922 | 3549 ft | 138 kts | 339° |
| 2026-04-25 16:21 | 17.87213 | -64.82283 | 3680 ft | 140 kts | 339° |
| 2026-04-25 16:21 | 17.88127 | -64.82652 | 3807 ft | 141 kts | 338° |
| 2026-04-25 16:21 | 17.89046 | -64.83029 | 3929 ft | 142 kts | 338° |
| 2026-04-25 16:21 | 17.89967 | -64.83410 | 4047 ft | 143 kts | 338° |
| 2026-04-25 16:22 | 17.90893 | -64.83795 | 4168 ft | 143 kts | 338° |
| 2026-04-25 16:22 | 17.91819 | -64.84177 | 4291 ft | 143 kts | 338° |
| 2026-04-25 16:22 | 17.92744 | -64.84563 | 4416 ft | 143 kts | 337° |
| 2026-04-25 16:22 | 17.93669 | -64.84947 | 4540 ft | 143 kts | 337° |
| 2026-04-25 16:23 | 17.94585 | -64.85354 | 4661 ft | 143 kts | 328° |
| 2026-04-25 16:23 | 17.95241 | -64.86095 | 4787 ft | 138 kts | 296° |
| 2026-04-25 16:23 | 17.95679 | -64.86988 | 4914 ft | 137 kts | 292° |
| 2026-04-25 16:23 | 17.96114 | -64.87887 | 5037 ft | 138 kts | 294° |
| 2026-04-25 16:24 | 17.96567 | -64.88773 | 5166 ft | 138 kts | 295° |
| 2026-04-25 16:24 | 17.97032 | -64.89649 | 5291 ft | 137 kts | 295° |
| 2026-04-25 16:24 | 17.97503 | -64.90520 | 5416 ft | 137 kts | 296° |
| 2026-04-25 16:24 | 17.97977 | -64.91388 | 5540 ft | 137 kts | 296° |
| 2026-04-25 16:25 | 17.98454 | -64.92255 | 5665 ft | 137 kts | 295° |
| 2026-04-25 16:25 | 17.98608 | -64.92536 | 5706 ft | 137 kts | 295° |
| 2026-04-25 16:25 | 17.99406 | -64.93981 | 5918 ft | 136 kts | 295° |
| 2026-04-25 16:25 | 17.99887 | -64.94854 | 5985 ft | 141 kts | 295° |
| 2026-04-25 16:26 | 18.00394 | -64.95766 | 6000 ft | 148 kts | 296° |
| 2026-04-25 16:26 | 18.00922 | -64.96707 | 6002 ft | 152 kts | 296° |
| 2026-04-25 16:26 | 18.01461 | -64.97674 | 6000 ft | 155 kts | 296° |
| 2026-04-25 16:26 | 18.02012 | -64.98664 | 6002 ft | 158 kts | 296° |
| 2026-04-25 16:27 | 18.02564 | -64.99655 | 6002 ft | 160 kts | 296° |
| 2026-04-25 16:27 | 18.03134 | -65.00682 | 5998 ft | 161 kts | 296° |
| 2026-04-25 16:27 | 18.03698 | -65.01703 | 5994 ft | 162 kts | 296° |
| 2026-04-25 16:27 | 18.04264 | -65.02725 | 5995 ft | 162 kts | 296° |
| 2026-04-25 16:28 | 18.04830 | -65.03747 | 5995 ft | 162 kts | 296° |
| 2026-04-25 16:28 | 18.05394 | -65.04768 | 5996 ft | 161 kts | 296° |
| 2026-04-25 16:28 | 18.05956 | -65.05789 | 5995 ft | 161 kts | 296° |
| 2026-04-25 16:28 | 18.06512 | -65.06798 | 5995 ft | 162 kts | 296° |
| 2026-04-25 16:29 | 18.07075 | -65.07819 | 5997 ft | 162 kts | 296° |
| 2026-04-25 16:29 | 18.07638 | -65.08840 | 6000 ft | 162 kts | 296° |
| 2026-04-25 16:29 | 18.08200 | -65.09862 | 6000 ft | 162 kts | 296° |
| 2026-04-25 16:29 | 18.08769 | -65.10897 | 5996 ft | 162 kts | 296° |
| 2026-04-25 16:30 | 18.09333 | -65.11921 | 6000 ft | 162 kts | 296° |
| 2026-04-25 16:30 | 18.09901 | -65.12949 | 6000 ft | 162 kts | 296° |
| 2026-04-25 16:30 | 18.10466 | -65.13975 | 6000 ft | 162 kts | 296° |
| 2026-04-25 16:30 | 18.11032 | -65.15000 | 5999 ft | 162 kts | 296° |
| 2026-04-25 16:31 | 18.11604 | -65.16029 | 5998 ft | 164 kts | 296° |
| 2026-04-25 16:31 | 18.12175 | -65.17057 | 5997 ft | 163 kts | 296° |
| 2026-04-25 16:31 | 18.12742 | -65.18076 | 6000 ft | 163 kts | 296° |
| 2026-04-25 16:31 | 18.13320 | -65.19118 | 5999 ft | 163 kts | 296° |
| 2026-04-25 16:32 | 18.13886 | -65.20149 | 6000 ft | 163 kts | 296° |
| 2026-04-25 16:32 | 18.14453 | -65.21178 | 5996 ft | 163 kts | 296° |
| 2026-04-25 16:32 | 18.15019 | -65.22206 | 5998 ft | 163 kts | 296° |
| 2026-04-25 16:32 | 18.15585 | -65.23233 | 5997 ft | 162 kts | 295° |
| 2026-04-25 16:33 | 18.16149 | -65.24262 | 5998 ft | 163 kts | 296° |
| 2026-04-25 16:33 | 18.16708 | -65.25275 | 5998 ft | 162 kts | 295° |
| 2026-04-25 16:33 | 18.17271 | -65.26299 | 5997 ft | 162 kts | 296° |
| 2026-04-25 16:33 | 18.17841 | -65.27340 | 5999 ft | 162 kts | 295° |
| 2026-04-25 16:34 | 18.18398 | -65.28355 | 5999 ft | 163 kts | 295° |
| 2026-04-25 16:34 | 18.18964 | -65.29386 | 5997 ft | 163 kts | 296° |
| 2026-04-25 16:34 | 18.19531 | -65.30416 | 5998 ft | 163 kts | 296° |
| 2026-04-25 16:34 | 18.20098 | -65.31447 | 5999 ft | 163 kts | 295° |
| 2026-04-25 16:35 | 18.20662 | -65.32478 | 5998 ft | 162 kts | 295° |
| 2026-04-25 16:35 | 18.21235 | -65.33522 | 5999 ft | 162 kts | 296° |
| 2026-04-25 16:35 | 18.21799 | -65.34549 | 5998 ft | 162 kts | 295° |
| 2026-04-25 16:35 | 18.22354 | -65.35564 | 6000 ft | 162 kts | 295° |
| 2026-04-25 16:36 | 18.22919 | -65.36594 | 6000 ft | 163 kts | 296° |
| 2026-04-25 16:36 | 18.23109 | -65.36941 | 6001 ft | 163 kts | 296° |
| 2026-04-25 16:36 | 18.23867 | -65.38319 | 5998 ft | 163 kts | 295° |
| 2026-04-25 16:36 | 18.24431 | -65.39347 | 6004 ft | 162 kts | 296° |
| 2026-04-25 16:37 | 18.24994 | -65.40372 | 6006 ft | 162 kts | 295° |
| 2026-04-25 16:37 | 18.25556 | -65.41398 | 6007 ft | 162 kts | 295° |
| 2026-04-25 16:37 | 18.26118 | -65.42427 | 6003 ft | 162 kts | 295° |
| 2026-04-25 16:37 | 18.26681 | -65.43456 | 6001 ft | 162 kts | 295° |
| 2026-04-25 16:38 | 18.27244 | -65.44484 | 6003 ft | 162 kts | 295° |
| 2026-04-25 16:38 | 18.27710 | -65.45549 | 6003 ft | 159 kts | 283° |
| 2026-04-25 16:38 | 18.27959 | -65.46672 | 6006 ft | 157 kts | 275° |
| 2026-04-25 16:38 | 18.28129 | -65.47804 | 6009 ft | 156 kts | 274° |
| 2026-04-25 16:39 | 18.28281 | -65.48937 | 6009 ft | 157 kts | 273° |
| 2026-04-25 16:39 | 18.28439 | -65.50070 | 6009 ft | 156 kts | 274° |
| 2026-04-25 16:39 | 18.28605 | -65.51202 | 6008 ft | 157 kts | 274° |
| 2026-04-25 16:39 | 18.28783 | -65.52333 | 6008 ft | 157 kts | 275° |
| 2026-04-25 16:40 | 18.28964 | -65.53462 | 6009 ft | 157 kts | 275° |
| 2026-04-25 16:40 | 18.29150 | -65.54593 | 6005 ft | 157 kts | 275° |
| 2026-04-25 16:40 | 18.29339 | -65.55720 | 6009 ft | 156 kts | 275° |
| 2026-04-25 16:40 | 18.29528 | -65.56845 | 6009 ft | 156 kts | 275° |
| 2026-04-25 16:41 | 18.29718 | -65.57974 | 6009 ft | 157 kts | 275° |
| 2026-04-25 16:41 | 18.29844 | -65.58721 | 6009 ft | 157 kts | 275° |
| 2026-04-25 16:41 | 18.30291 | -65.61371 | 6009 ft | 158 kts | 275° |
| 2026-04-25 16:42 | 18.30483 | -65.62505 | 6009 ft | 158 kts | 275° |
| 2026-04-25 16:42 | 18.30681 | -65.63641 | 6019 ft | 159 kts | 276° |
| 2026-04-25 16:42 | 18.30881 | -65.64785 | 6007 ft | 159 kts | 275° |
| 2026-04-25 16:42 | 18.31069 | -65.65936 | 6011 ft | 160 kts | 275° |
| 2026-04-25 16:43 | 18.31261 | -65.67087 | 6006 ft | 160 kts | 275° |
| 2026-04-25 16:43 | 18.31456 | -65.68243 | 6029 ft | 162 kts | 276° |
| 2026-04-25 16:43 | 18.31662 | -65.69417 | 6012 ft | 163 kts | 276° |
| 2026-04-25 16:43 | 18.31862 | -65.70592 | 6004 ft | 163 kts | 276° |
| 2026-04-25 16:44 | 18.32062 | -65.71761 | 5996 ft | 162 kts | 276° |
| 2026-04-25 16:44 | 18.32256 | -65.72917 | 5995 ft | 159 kts | 275° |
| 2026-04-25 16:44 | 18.32443 | -65.74061 | 6000 ft | 158 kts | 275° |
| 2026-04-25 16:44 | 18.32630 | -65.75201 | 6004 ft | 158 kts | 275° |
| 2026-04-25 16:45 | 18.32818 | -65.76341 | 5991 ft | 158 kts | 275° |
| 2026-04-25 16:45 | 18.33007 | -65.77477 | 6009 ft | 158 kts | 275° |
| 2026-04-25 16:45 | 18.33199 | -65.78617 | 6005 ft | 158 kts | 275° |
| 2026-04-25 16:45 | 18.33395 | -65.79761 | 6001 ft | 159 kts | 275° |
| 2026-04-25 16:46 | 18.33586 | -65.80909 | 6000 ft | 159 kts | 276° |
| 2026-04-25 16:46 | 18.33781 | -65.82049 | 5993 ft | 158 kts | 276° |
| 2026-04-25 16:46 | 18.33972 | -65.83183 | 5996 ft | 157 kts | 275° |
| 2026-04-25 16:46 | 18.34095 | -65.83938 | 5996 ft | 157 kts | 275° |
| 2026-04-25 16:47 | 18.34346 | -65.85458 | 5989 ft | 158 kts | 275° |
| 2026-04-25 16:47 | 18.34540 | -65.86591 | 5985 ft | 157 kts | 276° |
| 2026-04-25 16:47 | 18.34729 | -65.87724 | 6007 ft | 158 kts | 275° |
| 2026-04-25 16:47 | 18.34918 | -65.88868 | 5998 ft | 159 kts | 276° |
| 2026-04-25 16:48 | 18.35115 | -65.90024 | 6007 ft | 162 kts | 275° |
| 2026-04-25 16:48 | 18.35312 | -65.91193 | 5982 ft | 161 kts | 276° |
| 2026-04-25 16:48 | 18.35510 | -65.92350 | 5983 ft | 160 kts | 276° |
| 2026-04-25 16:48 | 18.35706 | -65.93508 | 5976 ft | 160 kts | 276° |
| 2026-04-25 16:49 | 18.35900 | -65.94654 | 5974 ft | 158 kts | 275° |
| 2026-04-25 16:49 | 18.36086 | -65.95797 | 5997 ft | 159 kts | 275° |
| 2026-04-25 16:49 | 18.36275 | -65.96955 | 5983 ft | 161 kts | 275° |
| 2026-04-25 16:49 | 18.36465 | -65.98089 | 5963 ft | 150 kts | 275° |
| 2026-04-25 16:50 | 18.36585 | -65.98794 | 5977 ft | 147 kts | 275° |
| 2026-04-25 16:50 | 18.36911 | -66.00178 | 5986 ft | 149 kts | 297° |
| 2026-04-25 16:50 | 18.37751 | -66.00823 | 5988 ft | 157 kts | 346° |
| 2026-04-25 16:50 | 18.38820 | -66.00705 | 5981 ft | 156 kts | 20° |
| 2026-04-25 16:51 | 18.39870 | -66.00558 | 5975 ft | 153 kts | 341° |
| 2026-04-25 16:51 | 18.40682 | -66.01198 | 5981 ft | 145 kts | 302° |
| 2026-04-25 16:51 | 18.41261 | -66.02065 | 5976 ft | 144 kts | 298° |
| 2026-04-25 16:51 | 18.41630 | -66.02671 | 5841 ft | 153 kts | 297° |
| 2026-04-25 16:52 | 18.42279 | -66.04051 | 5552 ft | 160 kts | 277° |
| 2026-04-25 16:52 | 18.42460 | -66.05167 | 5299 ft | 150 kts | 274° |
| 2026-04-25 16:52 | 18.42589 | -66.06248 | 4929 ft | 148 kts | 270° |
| 2026-04-25 16:52 | 18.42601 | -66.07319 | 4560 ft | 145 kts | 264° |
| 2026-04-25 16:53 | 18.42506 | -66.09427 | 3795 ft | 143 kts | 263° |
| 2026-04-25 16:53 | 18.42445 | -66.10467 | 3421 ft | 142 kts | 263° |
| 2026-04-25 16:53 | 18.42422 | -66.11488 | 3188 ft | 135 kts | 265° |
| 2026-04-25 16:54 | 18.42380 | -66.12433 | 3077 ft | 123 kts | 263° |
| 2026-04-25 16:54 | 18.42333 | -66.13282 | 3003 ft | 110 kts | 262° |
| 2026-04-25 16:54 | 18.42391 | -66.14064 | 3000 ft | 112 kts | 298° |
| 2026-04-25 16:54 | 18.43057 | -66.14428 | 3027 ft | 116 kts | 5° |
| 2026-04-25 16:55 | 18.43780 | -66.14070 | 3075 ft | 107 kts | 53° |
| 2026-04-25 16:55 | 18.44024 | -66.13400 | 2913 ft | 99 kts | 95° |
| 2026-04-25 16:55 | 18.43807 | -66.12718 | 2697 ft | 101 kts | 125° |
| 2026-04-25 16:55 | 18.43492 | -66.12037 | 2579 ft | 107 kts | 112° |
| 2026-04-25 16:56 | 18.43374 | -66.11250 | 2476 ft | 111 kts | 97° |
| 2026-04-25 16:56 | 18.43376 | -66.10426 | 2259 ft | 113 kts | 93° |
| 2026-04-25 16:56 | 18.43389 | -66.09591 | 1976 ft | 115 kts | 94° |
| 2026-04-25 16:56 | 18.43387 | -66.08747 | 1748 ft | 115 kts | 94° |
| 2026-04-25 16:57 | 18.43374 | -66.07902 | 1509 ft | 115 kts | 95° |
| 2026-04-25 16:57 | 18.43364 | -66.07346 | 1315 ft | 115 kts | 94° |
| 2026-04-25 16:57 | 18.43370 | -66.06274 | 953 ft | 97 kts | 93° |
| 2026-04-25 16:57 | 18.43382 | -66.05616 | 825 ft | 88 kts | 91° |
| 2026-04-25 16:58 | 18.43389 | -66.04976 | 736 ft | 88 kts | 93° |
| 2026-04-25 16:58 | 18.43366 | -66.04335 | 623 ft | 87 kts | 95° |
| 2026-04-25 16:58 | 18.43346 | -66.03702 | 490 ft | 85 kts | 93° |
| 2026-04-25 16:58 | 18.43362 | -66.03071 | 351 ft | 87 kts | 90° |
| 2026-04-25 16:59 | 18.43361 | -66.02441 | 228 ft | 85 kts | 93° |
| 2026-04-25 16:59 | 18.43360 | -66.01820 | 104 ft | 85 kts | 94° |
| 2026-04-25 16:59 | 18.43359 | -66.01203 | -26 ft | 80 kts | 93° |
| 2026-04-25 16:59 | 18.43356 | -66.00693 | -38 ft | 62 kts | 89° |
| 2026-04-25 17:00 | 18.43371 | -66.00327 | -38 ft | 41 kts | 73° |
| 2026-04-25 17:00 | 18.43445 | -66.00214 | -43 ft | 4 kts | 1° |
| 2026-04-25 17:00 | 18.43470 | -66.00189 | -33 ft | 8 kts | 95° |
| 2026-04-25 17:00 | 18.43466 | -66.00103 | -32 ft | 15 kts | 90° |
| 2026-04-25 17:01 | 18.43466 | -65.99975 | -37 ft | 20 kts | 91° |
| 2026-04-25 17:01 | 18.43488 | -65.99819 | -39 ft | 21 kts | 21° |
| 2026-04-25 17:01 | 18.43564 | -65.99793 | -25 ft | 9 kts | 56° |
| 2026-04-25 17:01 | 18.43567 | -65.99701 | -25 ft | 16 kts | 87° |
| 2026-04-25 17:02 | 18.43566 | -65.99562 | -25 ft | 18 kts | 65° |
| 2026-04-25 17:02 | 18.43692 | -65.99514 | -25 ft | 22 kts | 3° |
| 2026-04-25 17:02 | 18.43831 | -65.99477 | -24 ft | 19 kts | 77° |
| 2026-04-25 17:02 | 18.43830 | -65.99435 | -24 ft | 0 kts | 91° |